Time;durP1;ratioP1;P1;durP2;ratioP2;P2;SDS_P1;SDS_P2;PMS_P1;PMS_P2;Temp;Humidity;BMP_temperature;BMP_pressure;BME280_temperature;BME280_humidity;BME280_pressure;Samples;Min_cycle;Max_cycle;Signal;HPM_P1;HPM_P2
2021/04/28 00:01:57;;;;;;;20.70;12.68;;;11.00;99.90;;;;;;5035284;28;20567;-70
2021/04/28 00:04:23;;;;;;;20.55;13.15;;;11.10;99.90;;;;;;5033461;28;20889;-70
2021/04/28 00:06:49;;;;;;;20.60;13.00;;;11.10;99.90;;;;;;5037289;28;20021;-70
2021/04/28 00:09:16;;;;;;;21.63;13.90;;;11.10;99.90;;;;;;5032596;28;20072;-70
2021/04/28 00:11:42;;;;;;;20.52;15.20;;;11.10;99.90;;;;;;5034110;28;20029;-69
2021/04/28 00:14:09;;;;;;;22.75;14.50;;;11.10;99.90;;;;;;5042618;28;20147;-69
2021/04/28 00:16:36;;;;;;;21.58;13.45;;;11.10;99.90;;;;;;5032593;28;20072;-69
2021/04/28 00:19:02;;;;;;;27.05;15.25;;;11.10;99.90;;;;;;5052897;28;20017;-70
2021/04/28 00:21:29;;;;;;;22.67;13.85;;;11.10;99.90;;;;;;5050365;28;20032;-69
2021/04/28 00:23:55;;;;;;;20.05;14.30;;;11.10;99.90;;;;;;5039381;28;20029;-69
2021/04/28 00:26:21;;;;;;;17.55;13.32;;;11.10;99.90;;;;;;5042139;28;20558;-70
2021/04/28 00:28:47;;;;;;;22.10;14.95;;;11.10;99.90;;;;;;5040936;28;20510;-70
2021/04/28 00:31:13;;;;;;;20.88;13.57;;;11.10;99.90;;;;;;5032635;28;20025;-69
2021/04/28 00:33:39;;;;;;;25.05;14.32;;;11.10;99.90;;;;;;5048859;28;20025;-70
2021/04/28 00:36:06;;;;;;;22.13;14.15;;;11.20;99.90;;;;;;5036472;28;20025;-70
2021/04/28 00:38:31;;;;;;;22.08;13.70;;;11.10;99.90;;;;;;5032344;28;20037;-70
2021/04/28 00:40:58;;;;;;;18.55;12.82;;;11.10;99.90;;;;;;5032527;28;20032;-69
2021/04/28 00:43:23;;;;;;;19.55;12.32;;;11.10;99.90;;;;;;5045044;28;20761;-69
2021/04/28 00:45:49;;;;;;;16.67;11.90;;;11.10;99.90;;;;;;5044774;28;20087;-69
2021/04/28 00:48:15;;;;;;;19.02;11.65;;;11.20;99.90;;;;;;5032159;28;20500;-72
2021/04/28 00:50:51;;;;;;;15.80;11.90;;;11.20;99.90;;;;;;5033948;28;20035;-73
2021/04/28 00:53:18;;;;;;;18.67;12.68;;;11.20;99.90;;;;;;5050912;28;20074;-72
2021/04/28 00:55:45;;;;;;;17.58;12.13;;;11.30;99.90;;;;;;5032170;28;20029;-72
2021/04/28 00:58:10;;;;;;;16.17;10.90;;;11.20;99.90;;;;;;5045016;28;20025;-72
2021/04/28 01:00:38;;;;;;;16.52;11.75;;;11.30;99.90;;;;;;5050654;28;20423;-72
2021/04/28 01:03:05;;;;;;;17.60;11.73;;;11.20;99.90;;;;;;5049415;28;20041;-75
2021/04/28 01:05:31;;;;;;;18.70;12.48;;;11.20;99.90;;;;;;5045580;28;20060;-72
2021/04/28 01:07:57;;;;;;;16.20;9.77;;;11.20;99.90;;;;;;5043407;28;20052;-72
2021/04/28 01:10:26;;;;;;;15.63;9.13;;;11.20;99.90;;;;;;5051751;28;20044;-72
2021/04/28 01:12:53;;;;;;;13.35;9.00;;;11.10;99.90;;;;;;5033700;28;20026;-72
2021/04/28 01:15:23;;;;;;;16.00;10.55;;;11.20;99.90;;;;;;5031751;28;20492;-73
2021/04/28 01:17:49;;;;;;;16.52;11.32;;;11.10;99.90;;;;;;5047515;28;20029;-74
2021/04/28 01:20:17;;;;;;;19.52;10.18;;;11.10;99.90;;;;;;5050805;28;20373;-72
2021/04/28 01:22:44;;;;;;;18.23;11.43;;;11.10;99.90;;;;;;5035894;28;20061;-72
2021/04/28 01:25:14;;;;;;;18.77;10.50;;;11.10;99.90;;;;;;5037283;28;20095;-72
2021/04/28 01:27:43;;;;;;;13.85;9.73;;;11.10;99.90;;;;;;5037066;28;20079;-72
2021/04/28 01:30:12;;;;;;;16.33;9.77;;;11.10;99.90;;;;;;5034674;28;20057;-72
2021/04/28 01:32:44;;;;;;;17.48;10.40;;;11.20;99.90;;;;;;5030716;28;20052;-72
2021/04/28 01:35:14;;;;;;;14.20;9.38;;;11.10;99.90;;;;;;5031585;28;20097;-72
2021/04/28 01:37:40;;;;;;;15.85;9.27;;;11.10;99.90;;;;;;5031227;28;20033;-72
2021/04/28 01:40:07;;;;;;;17.60;9.68;;;11.10;99.90;;;;;;5031330;28;20040;-74
2021/04/28 01:42:33;;;;;;;13.93;8.80;;;11.10;99.90;;;;;;5034212;28;20396;-72
2021/04/28 01:44:59;;;;;;;14.75;9.88;;;11.10;99.90;;;;;;5031496;28;20025;-73
2021/04/28 01:47:25;;;;;;;12.88;7.95;;;11.10;99.90;;;;;;5037434;28;20047;-72
2021/04/28 01:49:52;;;;;;;20.27;8.90;;;11.10;99.90;;;;;;5047007;28;20029;-72
2021/04/28 01:52:19;;;;;;;14.27;8.68;;;11.00;99.90;;;;;;5039714;28;20041;-72
2021/04/28 01:54:47;;;;;;;14.88;9.05;;;11.00;99.90;;;;;;5038624;28;20025;-72
2021/04/28 01:57:13;;;;;;;15.07;9.75;;;10.80;99.90;;;;;;5039614;28;20561;-73
2021/04/28 01:59:40;;;;;;;14.20;9.27;;;10.80;99.90;;;;;;5034208;28;20393;-72
2021/04/28 02:02:08;;;;;;;14.55;8.98;;;10.80;99.90;;;;;;5032867;28;20438;-72
2021/04/28 02:04:36;;;;;;;13.85;8.95;;;10.80;99.90;;;;;;5031450;28;20160;-72
2021/04/28 02:07:03;;;;;;;14.50;9.25;;;10.70;99.90;;;;;;5039066;28;20029;-72
2021/04/28 02:09:29;;;;;;;13.10;8.77;;;10.80;99.90;;;;;;5051151;28;20025;-72
2021/04/28 02:11:54;;;;;;;13.40;8.85;;;10.90;99.90;;;;;;5038698;28;20460;-72
2021/04/28 02:14:21;;;;;;;12.80;8.32;;;10.80;99.90;;;;;;5050587;28;20490;-72
2021/04/28 02:16:48;;;;;;;15.23;9.65;;;10.90;99.90;;;;;;5043086;28;20043;-72
2021/04/28 02:19:16;;;;;;;12.52;8.25;;;10.80;99.90;;;;;;5050906;28;20037;-72
2021/04/28 02:21:50;;;;;;;14.65;7.95;;;11.00;99.90;;;;;;5037188;28;20029;-72
2021/04/28 02:24:16;;;;;;;13.63;7.85;;;10.90;99.90;;;;;;5031173;28;20025;-72
2021/04/28 02:26:43;;;;;;;12.73;8.27;;;10.80;99.90;;;;;;5045198;28;20022;-73
2021/04/28 02:29:10;;;;;;;14.98;8.55;;;10.70;99.90;;;;;;5049944;28;20060;-72
2021/04/28 02:31:37;;;;;;;12.27;7.88;;;10.80;99.90;;;;;;5040662;28;20447;-73
2021/04/28 02:34:07;;;;;;;13.13;8.07;;;10.90;99.90;;;;;;5037546;28;20426;-72
2021/04/28 02:36:36;;;;;;;13.07;8.98;;;10.90;99.90;;;;;;5048500;28;20022;-72
2021/04/28 02:39:10;;;;;;;14.63;9.38;;;10.80;99.90;;;;;;5031529;28;20025;-72
2021/04/28 02:41:45;;;;;;;15.38;9.95;;;10.70;99.90;;;;;;5030710;28;20065;-72
2021/04/28 02:44:11;;;;;;;;;;;10.70;99.90;;;;;;5034277;28;20034;-72
2021/04/28 02:46:38;;;;;;;16.70;9.57;;;10.70;99.90;;;;;;5034733;28;19911;-78
2021/04/28 02:49:05;;;;;;;19.80;12.52;;;10.60;99.90;;;;;;5034804;28;20037;-76
2021/04/28 02:51:33;;;;;;;22.88;15.90;;;10.60;99.90;;;;;;5039632;28;20037;-72
2021/04/28 02:54:01;;;;;;;22.75;14.60;;;10.60;99.90;;;;;;5034992;28;20423;-72
2021/04/28 02:56:30;;;;;;;21.13;14.38;;;10.80;99.90;;;;;;5051635;28;20029;-72
2021/04/28 02:58:57;;;;;;;20.05;13.25;;;10.70;99.90;;;;;;5054339;28;20017;-72
2021/04/28 03:01:24;;;;;;;18.27;11.95;;;10.80;99.90;;;;;;5046171;28;20056;-74
2021/04/28 03:03:53;;;;;;;20.45;11.85;;;10.70;99.90;;;;;;5037462;28;20035;-75
2021/04/28 03:06:19;;;;;;;15.30;11.38;;;10.70;99.90;;;;;;5033869;28;20036;-73
2021/04/28 03:08:46;;;;;;;17.40;12.57;;;10.70;99.90;;;;;;5040657;28;20109;-73
2021/04/28 03:11:15;;;;;;;18.35;12.43;;;10.80;99.90;;;;;;5027568;28;20701;-74
2021/04/28 03:13:42;;;;;;;17.33;12.88;;;10.90;99.90;;;;;;5029081;28;20622;-75
2021/04/28 03:16:09;;;;;;;17.45;12.73;;;10.90;99.90;;;;;;5034311;28;20388;-76
2021/04/28 03:18:36;;;;;;;21.52;14.60;;;10.80;99.90;;;;;;5047719;28;20513;-73
2021/04/28 03:21:03;;;;;;;26.60;15.50;;;10.90;99.90;;;;;;5046520;28;20057;-77
2021/04/28 03:23:28;;;;;;;20.10;14.18;;;10.90;99.90;;;;;;5028444;28;20492;-73
2021/04/28 03:25:54;;;;;;;15.18;9.65;;;11.00;99.90;;;;;;5029821;28;20021;-73
2021/04/28 03:28:20;;;;;;;22.75;14.27;;;11.00;99.90;;;;;;5044133;28;20037;-73
2021/04/28 03:30:46;;;;;;;18.52;12.43;;;10.80;99.90;;;;;;5027815;28;20836;-75
2021/04/28 03:33:12;;;;;;;19.50;10.93;;;10.70;99.90;;;;;;5034656;28;20032;-73
2021/04/28 03:35:38;;;;;;;17.23;10.52;;;10.70;99.90;;;;;;5033018;28;20061;-73
2021/04/28 03:38:04;;;;;;;15.40;9.80;;;10.70;99.90;;;;;;5045571;28;20034;-73
2021/04/28 03:40:30;;;;;;;15.95;11.23;;;10.60;99.90;;;;;;5047426;28;20079;-73
2021/04/28 03:42:55;;;;;;;19.58;13.23;;;10.60;99.90;;;;;;5043271;28;20494;-74
2021/04/28 03:45:21;;;;;;;23.92;13.32;;;10.60;99.90;;;;;;5036941;28;20021;-73
2021/04/28 03:47:47;;;;;;;19.35;12.63;;;10.60;99.90;;;;;;5035130;28;20033;-78
2021/04/28 03:50:13;;;;;;;15.05;10.70;;;10.50;99.90;;;;;;5026621;28;20187;-75
2021/04/28 03:52:39;;;;;;;16.73;11.15;;;10.50;99.90;;;;;;5027192;28;20065;-72
2021/04/28 03:55:07;;;;;;;15.52;10.60;;;10.40;99.90;;;;;;5026307;28;20120;-73
2021/04/28 03:57:32;;;;;;;17.38;11.68;;;10.40;99.90;;;;;;5027018;28;20033;-73
2021/04/28 03:59:58;;;;;;;15.60;10.20;;;10.30;99.90;;;;;;5027029;28;20033;-74
2021/04/28 04:02:24;;;;;;;17.65;10.88;;;10.40;99.90;;;;;;5035302;28;20033;-73
2021/04/28 04:04:52;;;;;;;17.42;11.07;;;10.40;99.90;;;;;;5027089;28;20029;-72
2021/04/28 04:07:18;;;;;;;18.23;11.05;;;10.40;99.90;;;;;;5034514;28;20029;-72
2021/04/28 04:09:44;;;;;;;16.60;10.63;;;10.30;99.90;;;;;;5026478;28;20507;-73
2021/04/28 04:12:09;;;;;;;15.02;10.98;;;10.30;99.90;;;;;;5026978;28;20032;-73
2021/04/28 04:14:35;;;;;;;16.80;10.55;;;10.30;99.90;;;;;;5026339;28;20036;-73
2021/04/28 04:17:01;;;;;;;18.55;10.73;;;10.30;99.90;;;;;;5039503;28;20533;-73
2021/04/28 04:19:27;;;;;;;17.02;11.68;;;10.30;99.90;;;;;;5031078;28;20029;-72
2021/04/28 04:21:52;;;;;;;18.90;10.95;;;10.30;99.90;;;;;;5026846;28;20384;-73
2021/04/28 04:24:18;;;;;;;15.13;10.27;;;10.40;99.90;;;;;;5026678;28;20073;-76
2021/04/28 04:26:44;;;;;;;18.38;10.60;;;10.40;99.90;;;;;;5026751;28;20091;-73
2021/04/28 04:29:09;;;;;;;18.90;12.32;;;10.40;99.90;;;;;;5026361;28;20033;-73
2021/04/28 04:31:35;;;;;;;15.15;10.95;;;10.50;99.90;;;;;;5026342;28;20040;-73
2021/04/28 04:34:01;;;;;;;16.42;12.18;;;10.50;99.90;;;;;;5029225;28;20116;-73
2021/04/28 04:36:27;;;;;;;20.52;11.85;;;10.50;99.90;;;;;;5035402;28;20029;-73
2021/04/28 04:38:53;;;;;;;18.75;12.45;;;10.50;99.90;;;;;;5038201;28;20025;-73
2021/04/28 04:41:18;;;;;;;19.25;12.25;;;10.40;99.90;;;;;;5026237;28;20033;-72
2021/04/28 04:43:44;;;;;;;19.33;11.85;;;10.40;99.90;;;;;;5025276;28;20048;-74
2021/04/28 04:46:11;;;;;;;17.95;11.40;;;10.50;99.90;;;;;;5026167;28;20021;-73
2021/04/28 04:48:36;;;;;;;19.20;12.75;;;10.50;99.90;;;;;;5039208;28;20033;-76
2021/04/28 04:51:02;;;;;;;19.13;12.02;;;10.50;99.90;;;;;;5045954;28;20020;-74
2021/04/28 04:53:28;;;;;;;20.25;11.85;;;10.50;99.90;;;;;;5029571;28;20057;-73
2021/04/28 04:55:54;;;;;;;23.02;14.02;;;10.40;99.90;;;;;;5025791;28;20537;-73
2021/04/28 04:58:19;;;;;;;21.75;13.15;;;10.20;99.90;;;;;;5030703;28;20025;-73
2021/04/28 05:00:45;;;;;;;16.23;11.93;;;10.10;99.90;;;;;;5026324;28;20036;-74
2021/04/28 05:03:11;;;;;;;19.30;13.05;;;10.20;99.90;;;;;;5025959;28;20033;-73
2021/04/28 05:05:37;;;;;;;17.77;13.15;;;10.10;99.90;;;;;;5025441;28;20066;-77
2021/04/28 05:08:04;;;;;;;19.17;12.95;;;10.20;99.90;;;;;;5026478;28;20029;-78
2021/04/28 05:10:29;;;;;;;22.42;13.15;;;10.10;99.90;;;;;;5039477;28;20064;-73
2021/04/28 05:12:55;;;;;;;19.00;12.75;;;9.90;99.90;;;;;;5025764;28;20419;-75
2021/04/28 05:15:21;;;;;;;20.02;13.30;;;10.10;99.90;;;;;;5025583;28;20029;-73
2021/04/28 05:17:47;;;;;;;19.02;12.93;;;10.00;99.90;;;;;;5030527;28;20033;-75
2021/04/28 05:20:13;;;;;;;21.17;11.80;;;10.00;99.90;;;;;;5025992;28;20920;-74
2021/04/28 05:22:40;;;;;;;20.35;12.63;;;10.10;99.90;;;;;;5033145;28;20410;-75
2021/04/28 05:25:06;;;;;;;16.33;11.65;;;10.10;99.90;;;;;;5025524;28;20026;-72
2021/04/28 05:27:33;;;;;;;18.35;11.63;;;10.10;99.90;;;;;;5034766;28;20049;-74
2021/04/28 05:29:58;;;;;;;17.35;12.10;;;10.10;99.90;;;;;;5026384;28;20029;-75
2021/04/28 05:32:24;;;;;;;17.38;11.32;;;10.00;99.90;;;;;;5028307;28;20040;-74
2021/04/28 05:34:52;;;;;;;19.67;12.13;;;10.10;99.90;;;;;;5035933;28;20119;-73
2021/04/28 05:37:19;;;;;;;19.02;12.65;;;10.20;99.90;;;;;;5040130;28;20036;-76
2021/04/28 05:39:49;;;;;;;14.82;10.13;;;10.30;99.90;;;;;;5042251;28;20036;-73
2021/04/28 05:42:16;;;;;;;18.60;12.00;;;10.20;99.90;;;;;;5024486;28;20033;-73
2021/04/28 05:44:42;;;;;;;22.50;12.40;;;10.20;99.90;;;;;;5030334;28;20025;-74
2021/04/28 05:47:08;;;;;;;16.98;10.57;;;10.30;99.90;;;;;;5024788;28;20545;-74
2021/04/28 05:49:34;;;;;;;21.30;12.68;;;10.40;99.90;;;;;;5025436;28;20049;-73
2021/04/28 05:52:00;;;;;;;18.83;12.60;;;10.50;99.90;;;;;;5025181;28;20037;-72
2021/04/28 05:54:26;;;;;;;16.48;11.35;;;10.50;99.90;;;;;;5024430;28;20040;-72
2021/04/28 05:56:52;;;;;;;16.15;10.85;;;10.60;99.90;;;;;;5025054;28;20033;-73
2021/04/28 05:59:17;;;;;;;22.52;11.88;;;10.70;99.90;;;;;;5024854;28;20385;-73
2021/04/28 06:01:43;;;;;;;27.75;12.18;;;10.60;99.90;;;;;;5028354;28;20021;-74
2021/04/28 06:04:09;;;;;;;21.10;13.75;;;10.80;99.90;;;;;;5041767;28;20100;-77
2021/04/28 06:06:35;;;;;;;20.10;13.35;;;10.80;99.90;;;;;;5031703;28;20488;-73
2021/04/28 06:09:01;;;;;;;25.50;14.98;;;10.90;99.90;;;;;;5024504;28;20084;-73
2021/04/28 06:11:26;;;;;;;22.80;14.57;;;10.90;99.90;;;;;;5023915;28;20676;-73
2021/04/28 06:13:52;;;;;;;25.90;15.95;;;11.10;99.90;;;;;;5032451;28;20083;-73
2021/04/28 06:16:18;;;;;;;24.42;17.58;;;11.20;99.90;;;;;;5039888;28;20063;-72
2021/04/28 06:18:44;;;;;;;31.33;18.65;;;11.40;99.90;;;;;;5044945;28;20039;-74
2021/04/28 06:21:10;;;;;;;29.15;19.27;;;11.60;99.90;;;;;;5047032;28;20035;-73
2021/04/28 06:23:37;;;;;;;24.13;16.38;;;11.80;99.90;;;;;;5027705;28;20037;-77
2021/04/28 06:26:04;;;;;;;27.52;17.55;;;12.00;99.90;;;;;;5027658;28;20099;-73
2021/04/28 06:28:30;;;;;;;24.52;18.42;;;12.00;99.90;;;;;;5027694;28;20029;-72
2021/04/28 06:30:56;;;;;;;28.85;18.58;;;12.00;99.90;;;;;;5030692;28;20037;-78
2021/04/28 06:33:22;;;;;;;24.25;15.98;;;12.10;99.90;;;;;;5032052;28;20037;-76
2021/04/28 06:35:47;;;;;;;23.67;16.40;;;12.20;99.90;;;;;;5037694;28;20044;-73
2021/04/28 06:38:13;;;;;;;22.83;15.68;;;12.20;99.90;;;;;;5047472;28;20036;-73
2021/04/28 06:40:39;;;;;;;26.15;16.13;;;12.20;99.90;;;;;;5047259;28;20636;-73
2021/04/28 06:43:06;;;;;;;22.83;17.58;;;12.40;99.90;;;;;;5036914;28;20030;-74
2021/04/28 06:45:34;;;;;;;25.38;17.58;;;12.60;99.90;;;;;;5031575;28;20053;-72
2021/04/28 06:48:01;;;;;;;27.48;18.65;;;12.70;99.90;;;;;;5042357;28;20022;-74
2021/04/28 06:50:27;;;;;;;26.45;17.67;;;12.80;99.90;;;;;;5027286;28;20091;-73
2021/04/28 06:52:53;;;;;;;30.52;19.10;;;13.00;99.90;;;;;;5027635;28;20022;-74
2021/04/28 06:55:23;;;;;;;29.55;17.77;;;12.90;99.90;;;;;;5039507;28;20025;-73
2021/04/28 06:57:55;;;;;;;24.48;16.88;;;13.00;99.90;;;;;;5046869;28;20025;-74
2021/04/28 07:00:22;;;;;;;29.42;17.95;;;13.30;99.90;;;;;;5047632;28;20356;-73
2021/04/28 07:02:47;;;;;;;25.45;17.00;;;14.20;99.90;;;;;;5047168;28;20033;-73
2021/04/28 07:05:14;;;;;;;27.00;19.35;;;14.90;99.20;;;;;;5038238;28;20024;-78
2021/04/28 07:07:39;;;;;;;29.73;19.98;;;15.40;98.00;;;;;;5045746;28;20033;-75
2021/04/28 07:10:06;;;;;;;30.15;18.83;;;16.10;96.10;;;;;;5044699;28;20052;-73
2021/04/28 07:12:32;;;;;;;25.98;18.38;;;16.50;95.40;;;;;;5044109;28;20063;-74
2021/04/28 07:14:58;;;;;;;31.73;19.67;;;17.30;94.40;;;;;;5027298;28;20053;-77
2021/04/28 07:17:23;;;;;;;26.98;19.75;;;17.90;93.90;;;;;;5027033;28;20550;-74
2021/04/28 07:19:49;;;;;;;26.52;18.65;;;18.20;93.30;;;;;;5027032;28;20033;-75
2021/04/28 07:22:15;;;;;;;28.50;20.83;;;18.20;92.20;;;;;;5032882;28;20032;-73
2021/04/28 07:24:40;;;;;;;28.35;20.23;;;18.70;91.70;;;;;;5029842;28;20037;-75
2021/04/28 07:27:06;;;;;;;32.53;20.17;;;19.40;91.30;;;;;;5042105;28;20552;-75
2021/04/28 07:29:32;;;;;;;25.10;16.92;;;19.10;90.70;;;;;;5034866;28;20044;-74
2021/04/28 07:32:02;;;;;;;26.40;17.90;;;19.30;90.80;;;;;;5027473;28;20060;-74
2021/04/28 07:34:28;;;;;;;24.30;17.75;;;19.00;90.30;;;;;;5026371;28;20021;-73
2021/04/28 07:36:54;;;;;;;25.95;17.77;;;18.80;90.30;;;;;;5029721;28;20079;-76
2021/04/28 07:39:20;;;;;;;22.52;16.10;;;18.60;90.90;;;;;;5036422;28;20046;-74
2021/04/28 07:41:46;;;;;;;21.85;16.75;;;18.90;90.10;;;;;;5026067;28;20060;-73
2021/04/28 07:44:13;;;;;;;21.92;16.10;;;17.10;92.10;;;;;;5026288;28;20029;-79
2021/04/28 07:46:38;;;;;;;24.35;17.80;;;15.60;94.10;;;;;;5026572;28;20028;-74
2021/04/28 07:49:04;;;;;;;24.02;17.50;;;15.00;95.00;;;;;;5033725;28;20029;-76
2021/04/28 07:51:32;;;;;;;25.33;17.95;;;14.60;96.20;;;;;;5046746;28;20024;-73
2021/04/28 07:53:58;;;;;;;24.05;17.83;;;14.40;96.60;;;;;;5046517;28;20017;-74
2021/04/28 07:56:23;;;;;;;25.25;16.45;;;14.50;96.90;;;;;;5039207;28;20033;-74
2021/04/28 07:58:49;;;;;;;23.92;17.20;;;14.40;97.00;;;;;;5026358;28;20025;-73
2021/04/28 08:01:15;;;;;;;23.85;17.15;;;14.20;96.80;;;;;;5026235;28;20022;-73
2021/04/28 08:03:41;;;;;;;23.27;17.17;;;14.20;97.00;;;;;;5026971;28;20041;-73
2021/04/28 08:06:07;;;;;;;23.83;17.38;;;14.40;97.00;;;;;;5026542;28;20097;-74
2021/04/28 08:08:32;;;;;;;22.50;15.45;;;14.40;96.70;;;;;;5026986;28;20030;-73
2021/04/28 08:10:58;;;;;;;21.90;15.63;;;14.50;96.80;;;;;;5026108;28;20480;-73
2021/04/28 08:13:24;;;;;;;20.30;14.93;;;14.50;96.30;;;;;;5033114;28;20024;-75
2021/04/28 08:15:49;;;;;;;21.88;14.68;;;14.40;96.40;;;;;;5028860;28;20034;-76
2021/04/28 08:18:15;;;;;;;22.98;15.82;;;14.50;96.50;;;;;;5046040;28;20025;-72
2021/04/28 08:20:41;;;;;;;23.15;15.32;;;14.60;96.60;;;;;;5045160;28;20597;-73
2021/04/28 08:23:07;;;;;;;23.63;15.23;;;15.00;96.40;;;;;;5045944;28;20033;-75
2021/04/28 08:25:33;;;;;;;23.33;15.23;;;16.70;94.40;;;;;;5045811;28;20025;-74
2021/04/28 08:28:02;;;;;;;22.60;16.05;;;17.10;93.30;;;;;;5030183;28;20051;-74
2021/04/28 08:30:27;;;;;;;22.17;15.25;;;18.10;92.40;;;;;;5025320;28;20048;-74
2021/04/28 08:32:53;;;;;;;24.73;16.08;;;18.80;92.00;;;;;;5025905;28;20108;-73
2021/04/28 08:35:19;;;;;;;22.55;14.55;;;17.60;92.30;;;;;;5032254;28;20116;-73
2021/04/28 08:37:46;;;;;;;22.73;15.48;;;18.50;92.10;;;;;;5045085;28;20033;-73
2021/04/28 08:40:14;;;;;;;20.83;14.10;;;19.00;92.00;;;;;;5042357;28;20082;-73
2021/04/28 08:42:40;;;;;;;19.75;14.65;;;18.90;91.70;;;;;;5025972;28;20037;-74
2021/04/28 08:45:06;;;;;;;19.90;14.48;;;18.80;91.80;;;;;;5026421;28;20076;-76
2021/04/28 08:47:33;;;;;;;22.27;14.63;;;18.60;92.00;;;;;;5034278;28;20030;-76
2021/04/28 08:49:59;;;;;;;25.10;16.45;;;18.40;91.70;;;;;;5026873;28;20034;-72
2021/04/28 08:52:25;;;;;;;25.17;15.88;;;17.90;92.30;;;;;;5032727;28;20028;-73
2021/04/28 08:54:51;;;;;;;23.77;14.32;;;16.90;92.20;;;;;;5025884;28;20033;-74
2021/04/28 08:57:17;;;;;;;20.05;14.98;;;17.20;93.00;;;;;;5025314;28;20109;-74
2021/04/28 08:59:43;;;;;;;22.25;14.65;;;17.10;93.00;;;;;;5025687;28;20025;-77
2021/04/28 09:02:14;;;;;;;22.98;13.10;;;17.10;93.40;;;;;;5025429;28;20129;-73
2021/04/28 09:04:40;;;;;;;21.17;13.77;;;17.70;92.30;;;;;;5032910;28;20025;-72
2021/04/28 09:07:06;;;;;;;20.08;13.35;;;17.40;92.70;;;;;;5024993;28;20369;-75
2021/04/28 09:09:31;;;;;;;21.20;13.10;;;17.40;92.60;;;;;;5025102;28;20124;-74
2021/04/28 09:12:00;;;;;;;19.17;13.40;;;17.30;92.10;;;;;;5025419;28;20048;-73
2021/04/28 09:14:30;;;;;;;19.58;13.95;;;17.20;92.50;;;;;;5025433;28;20104;-77
2021/04/28 09:16:55;;;;;;;20.42;13.32;;;17.40;93.00;;;;;;5025289;28;20033;-73
2021/04/28 09:19:36;;;;;;;18.55;13.20;;;17.20;91.90;;;;;;5025023;28;20241;-74
2021/04/28 09:22:05;;;;;;;22.05;12.25;;;17.30;91.70;;;;;;5037276;28;20631;-73
2021/04/28 09:24:45;;;;;;;16.33;11.18;;;17.20;91.30;;;;;;5033198;28;20099;-73
2021/04/28 09:27:32;;;;;;;14.35;10.85;;;17.40;92.10;;;;;;5024994;28;20575;-74
2021/04/28 09:29:58;;;;;;;16.92;11.80;;;17.90;91.60;;;;;;5025335;28;20024;-74
2021/04/28 09:32:32;;;;;;;12.85;9.50;;;18.20;91.30;;;;;;5024790;28;20377;-74
2021/04/28 09:35:19;;;;;;;13.98;9.70;;;18.20;90.20;;;;;;5023613;28;20025;-73
2021/04/28 09:37:58;;;;;;;12.98;9.80;;;18.40;90.70;;;;;;5029301;28;20626;-73
2021/04/28 09:40:55;;;;;;;15.93;10.70;;;18.30;90.40;;;;;;5025475;28;20026;-73
2021/04/28 09:43:21;;;;;;;13.25;8.35;;;18.40;89.70;;;;;;5024550;28;20044;-74
2021/04/28 09:45:48;;;;;;;13.82;9.05;;;18.60;89.40;;;;;;5024742;28;20028;-73
2021/04/28 09:48:23;;;;;;;12.35;8.38;;;18.60;89.90;;;;;;5024570;28;20061;-73
2021/04/28 09:51:01;;;;;;;11.95;8.40;;;18.20;89.80;;;;;;5024003;28;20029;-74
2021/04/28 09:53:28;;;;;;;15.93;8.38;;;18.50;89.80;;;;;;5024884;28;20021;-72
2021/04/28 09:55:55;;;;;;;11.10;7.25;;;18.40;87.50;;;;;;5040314;28;20036;-73
2021/04/28 09:58:47;;;;;;;12.35;7.72;;;18.30;88.90;;;;;;5045487;28;20041;-74
2021/04/28 10:01:14;;;;;;;8.73;5.95;;;18.20;87.20;;;;;;5028484;28;20500;-73
2021/04/28 10:03:45;;;;;;;9.45;6.40;;;18.40;87.10;;;;;;5042180;28;20033;-74
2021/04/28 10:06:11;;;;;;;12.38;7.65;;;18.40;86.70;;;;;;5028834;28;20060;-73
2021/04/28 10:08:37;;;;;;;12.15;7.28;;;18.50;90.20;;;;;;5028187;28;20531;-74
2021/04/28 10:11:03;;;;;;;11.77;6.18;;;18.50;89.20;;;;;;5028011;28;20050;-74
2021/04/28 10:13:29;;;;;;;11.50;7.18;;;18.40;87.20;;;;;;5027606;28;20022;-77
2021/04/28 10:15:54;;;;;;;12.73;8.48;;;18.40;86.80;;;;;;5028768;28;20040;-73
2021/04/28 10:18:23;;;;;;;10.05;6.78;;;18.40;88.20;;;;;;5027825;28;20029;-75
2021/04/28 10:20:50;;;;;;;12.18;7.60;;;18.60;87.20;;;;;;5047049;28;20052;-73
2021/04/28 10:23:17;;;;;;;9.18;6.55;;;19.00;88.30;;;;;;5047720;28;20495;-77
2021/04/28 10:25:48;;;;;;;11.48;7.55;;;19.20;86.60;;;;;;5047880;28;20021;-73
2021/04/28 10:28:15;;;;;;;11.50;6.30;;;19.00;85.20;;;;;;5047479;28;20041;-76
2021/04/28 10:30:44;;;;;;;11.80;6.20;;;18.80;86.90;;;;;;5029951;28;20033;-77
2021/04/28 10:33:17;;;;;;;9.25;4.65;;;18.80;83.80;;;;;;5027682;28;20030;-73
2021/04/28 10:35:44;;;;;;;8.07;4.97;;;19.00;87.20;;;;;;5027632;28;20018;-73
2021/04/28 10:38:10;;;;;;;10.05;4.85;;;19.60;87.00;;;;;;5027617;28;20025;-73
2021/04/28 10:40:37;;;;;;;9.38;5.60;;;20.00;83.80;;;;;;5027517;28;20084;-72
2021/04/28 10:43:10;;;;;;;9.50;5.55;;;20.10;82.30;;;;;;5027026;28;20357;-73
2021/04/28 10:45:37;;;;;;;9.73;6.03;;;20.00;84.70;;;;;;5027206;28;20376;-74
2021/04/28 10:48:07;;;;;;;10.48;6.85;;;20.20;84.80;;;;;;5027384;28;20025;-73
2021/04/28 10:50:45;;;;;;;14.00;8.52;;;19.80;83.60;;;;;;5032124;28;20095;-72
2021/04/28 10:53:22;;;;;;;11.98;8.30;;;19.70;87.90;;;;;;5035430;28;20057;-73
2021/04/28 10:55:50;;;;;;;12.52;7.07;;;19.90;86.90;;;;;;5035626;28;20386;-77
2021/04/28 10:58:34;;;;;;;11.02;7.45;;;20.20;84.00;;;;;;5047081;28;20371;-72
2021/04/28 11:01:06;;;;;;;11.82;7.57;;;19.80;84.60;;;;;;5047731;28;20407;-77
2021/04/28 11:03:46;;;;;;;10.30;7.13;;;20.00;85.00;;;;;;5038030;28;20041;-78
2021/04/28 11:06:23;;;;;;;10.05;6.00;;;19.70;84.00;;;;;;5026837;28;20068;-73
2021/04/28 11:08:49;;;;;;;10.98;7.25;;;20.20;84.10;;;;;;5027424;28;20391;-73
2021/04/28 11:11:42;;;;;;;12.10;7.32;;;20.00;85.30;;;;;;5045513;28;20053;-72
2021/04/28 11:14:21;;;;;;;11.15;6.82;;;20.10;83.90;;;;;;5030388;28;20029;-72
2021/04/28 11:17:01;;;;;;;13.10;6.60;;;20.30;85.60;;;;;;5026564;28;20049;-78
2021/04/28 11:19:37;;;;;;;13.38;6.28;;;20.30;84.50;;;;;;5026418;28;20018;-72
2021/04/28 11:22:03;;;;;;;10.10;6.00;;;20.20;84.80;;;;;;5026248;28;20072;-73
2021/04/28 11:24:50;;;;;;;9.82;6.53;;;20.50;83.10;;;;;;5029145;28;20029;-72
2021/04/28 11:27:43;;;;;;;9.85;6.53;;;20.10;85.50;;;;;;5026400;28;20108;-74
2021/04/28 11:30:28;;;;;;;11.48;6.78;;;20.10;84.30;;;;;;5029682;28;20460;-72
2021/04/28 11:33:05;;;;;;;10.70;6.25;;;20.20;82.60;;;;;;5041190;28;20021;-73
2021/04/28 11:35:31;;;;;;;11.98;5.72;;;20.30;84.00;;;;;;5032208;28;20108;-72
2021/04/28 11:38:05;;;;;;;10.25;6.07;;;20.20;82.20;;;;;;5043075;28;20100;-77
2021/04/28 11:40:31;;;;;;;13.88;5.28;;;20.00;83.80;;;;;;5046333;28;20040;-72
2021/04/28 11:42:57;;;;;;;10.07;5.70;;;20.40;82.50;;;;;;5046041;28;20040;-73
2021/04/28 11:45:31;;;;;;;8.18;4.60;;;20.70;83.40;;;;;;5045846;28;20083;-72
2021/04/28 11:47:57;;;;;;;7.07;5.18;;;20.40;83.70;;;;;;5028847;28;20385;-76
2021/04/28 11:50:23;;;;;;;14.07;5.43;;;20.30;82.50;;;;;;5046401;28;20072;-73
2021/04/28 11:52:48;;;;;;;11.68;6.53;;;20.10;82.70;;;;;;5046048;28;20029;-73
2021/04/28 11:55:14;;;;;;;11.95;6.13;;;20.00;84.50;;;;;;5031268;28;20033;-72
2021/04/28 11:57:40;;;;;;;10.30;6.18;;;20.10;83.10;;;;;;5036264;28;20025;-73
2021/04/28 12:00:11;;;;;;;12.88;6.03;;;19.90;83.10;;;;;;5045839;28;20035;-73
2021/04/28 12:02:37;;;;;;;11.32;5.78;;;19.90;84.70;;;;;;5043675;28;20037;-71
2021/04/28 12:05:05;;;;;;;7.97;5.43;;;20.10;84.20;;;;;;5025998;28;20025;-72
2021/04/28 12:07:32;;;;;;;9.05;5.78;;;20.30;83.60;;;;;;5025655;28;20041;-72
2021/04/28 12:09:58;;;;;;;10.35;5.53;;;20.30;83.70;;;;;;5032832;28;20480;-73
2021/04/28 12:12:29;;;;;;;11.75;5.75;;;20.70;83.30;;;;;;5040295;28;20041;-73
2021/04/28 12:15:07;;;;;;;11.02;6.43;;;20.50;82.30;;;;;;5044901;28;20068;-72
2021/04/28 12:17:44;;;;;;;8.70;5.20;;;20.50;83.60;;;;;;5044470;28;20519;-71
2021/04/28 12:20:19;;;;;;;10.10;5.60;;;20.80;83.00;;;;;;5041895;28;20029;-75
2021/04/28 12:22:46;;;;;;;12.32;6.38;;;21.00;82.70;;;;;;5037733;28;20025;-73
2021/04/28 12:25:14;;;;;;;13.23;6.90;;;20.50;81.20;;;;;;5044563;28;20059;-72
2021/04/28 12:27:47;;;;;;;11.65;6.47;;;20.30;82.10;;;;;;5032355;28;20021;-72
2021/04/28 12:30:14;;;;;;;8.68;5.60;;;20.30;81.80;;;;;;5030592;28;20029;-72
2021/04/28 12:32:46;;;;;;;10.88;5.97;;;20.30;82.50;;;;;;5024880;28;20026;-71
2021/04/28 12:35:29;;;;;;;9.13;6.90;;;20.30;83.10;;;;;;5025014;28;20037;-72